sensor_id;sensor_type;location;lat;lon;timestamp;P1;P2;P0
68841;PMS5003;55849;48.482;2.332;2022-08-30T00:01:21;4.25;3.00;1.50
68841;PMS5003;55849;48.482;2.332;2022-08-30T00:04:25;3.00;1.00;1.00
68841;PMS5003;55849;48.482;2.332;2022-08-30T00:07:26;3.00;2.25;2.00
68841;PMS5003;55849;48.482;2.332;2022-08-30T00:10:28;3.00;3.00;2.00
68841;PMS5003;55849;48.482;2.332;2022-08-30T00:13:31;2.00;2.00;2.00
68841;PMS5003;55849;48.482;2.332;2022-08-30T00:16:33;3.25;3.25;2.00
68841;PMS5003;55849;48.482;2.332;2022-08-30T00:19:38;3.00;2.25;2.00
68841;PMS5003;55849;48.482;2.332;2022-08-30T00:22:39;3.75;3.00;2.00
68841;PMS5003;55849;48.482;2.332;2022-08-30T00:25:41;2.50;2.50;2.00
68841;PMS5003;55849;48.482;2.332;2022-08-30T00:28:44;3.25;3.00;2.25
68841;PMS5003;55849;48.482;2.332;2022-08-30T00:31:46;3.00;3.00;2.00
68841;PMS5003;55849;48.482;2.332;2022-08-30T00:34:48;2.50;2.50;1.50
68841;PMS5003;55849;48.482;2.332;2022-08-30T00:37:51;2.75;2.75;2.00
68841;PMS5003;55849;48.482;2.332;2022-08-30T00:40:53;3.00;3.00;2.00
68841;PMS5003;55849;48.482;2.332;2022-08-30T00:43:56;6.25;2.75;1.50
68841;PMS5003;55849;48.482;2.332;2022-08-30T00:46:58;2.50;2.25;2.00
68841;PMS5003;55849;48.482;2.332;2022-08-30T00:50:00;3.75;3.75;2.00
68841;PMS5003;55849;48.482;2.332;2022-08-30T00:53:03;6.75;4.00;3.00
68841;PMS5003;55849;48.482;2.332;2022-08-30T00:56:08;3.00;2.00;1.75
68841;PMS5003;55849;48.482;2.332;2022-08-30T00:59:12;3.00;2.00;2.00
68841;PMS5003;55849;48.482;2.332;2022-08-30T01:02:14;4.00;3.00;1.75
68841;PMS5003;55849;48.482;2.332;2022-08-30T01:05:20;2.25;2.25;1.50
68841;PMS5003;55849;48.482;2.332;2022-08-30T01:08:23;3.75;3.50;2.00
68841;PMS5003;55849;48.482;2.332;2022-08-30T01:11:24;3.00;3.00;2.00
68841;PMS5003;55849;48.482;2.332;2022-08-30T01:14:27;3.50;3.00;1.00
68841;PMS5003;55849;48.482;2.332;2022-08-30T01:17:30;4.50;3.00;2.00
68841;PMS5003;55849;48.482;2.332;2022-08-30T01:20:34;3.50;3.50;2.00
68841;PMS5003;55849;48.482;2.332;2022-08-30T01:23:42;2.00;2.00;1.00
68841;PMS5003;55849;48.482;2.332;2022-08-30T01:26:46;2.75;2.00;2.00
68841;PMS5003;55849;48.482;2.332;2022-08-30T01:29:47;6.50;4.00;2.25
68841;PMS5003;55849;48.482;2.332;2022-08-30T01:32:51;6.00;4.00;2.50
68841;PMS5003;55849;48.482;2.332;2022-08-30T01:35:59;3.00;3.00;2.00
68841;PMS5003;55849;48.482;2.332;2022-08-30T01:39:04;5.00;3.00;3.00
68841;PMS5003;55849;48.482;2.332;2022-08-30T01:42:06;4.00;2.25;2.00
68841;PMS5003;55849;48.482;2.332;2022-08-30T01:45:08;3.00;3.00;2.50
68841;PMS5003;55849;48.482;2.332;2022-08-30T01:48:11;3.75;3.75;2.00
68841;PMS5003;55849;48.482;2.332;2022-08-30T01:51:13;3.00;2.00;1.25
68841;PMS5003;55849;48.482;2.332;2022-08-30T01:54:16;3.00;3.00;2.00
68841;PMS5003;55849;48.482;2.332;2022-08-30T01:57:19;2.00;2.00;1.50
68841;PMS5003;55849;48.482;2.332;2022-08-30T02:00:22;4.50;3.00;2.50
68841;PMS5003;55849;48.482;2.332;2022-08-30T02:03:24;4.00;4.00;2.50
68841;PMS5003;55849;48.482;2.332;2022-08-30T02:06:29;3.75;2.50;2.00
68841;PMS5003;55849;48.482;2.332;2022-08-30T02:09:32;3.00;3.00;2.00
68841;PMS5003;55849;48.482;2.332;2022-08-30T02:12:34;9.75;4.75;2.25
68841;PMS5003;55849;48.482;2.332;2022-08-30T02:15:36;3.00;3.00;2.00
68841;PMS5003;55849;48.482;2.332;2022-08-30T02:18:37;3.50;3.50;2.50
68841;PMS5003;55849;48.482;2.332;2022-08-30T02:21:40;5.00;3.75;2.50
68841;PMS5003;55849;48.482;2.332;2022-08-30T02:24:43;3.25;1.75;1.00
68841;PMS5003;55849;48.482;2.332;2022-08-30T02:27:44;3.50;3.25;3.00
68841;PMS5003;55849;48.482;2.332;2022-08-30T02:30:46;4.75;3.25;2.00
68841;PMS5003;55849;48.482;2.332;2022-08-30T02:33:49;5.00;5.00;3.00
68841;PMS5003;55849;48.482;2.332;2022-08-30T02:36:52;4.50;4.00;2.00
68841;PMS5003;55849;48.482;2.332;2022-08-30T02:39:55;7.75;4.25;3.00
68841;PMS5003;55849;48.482;2.332;2022-08-30T02:42:56;5.50;3.25;2.25
68841;PMS5003;55849;48.482;2.332;2022-08-30T02:45:58;4.00;4.00;3.00
68841;PMS5003;55849;48.482;2.332;2022-08-30T02:49:00;5.25;4.25;2.25
68841;PMS5003;55849;48.482;2.332;2022-08-30T02:52:02;4.25;4.25;3.00
68841;PMS5003;55849;48.482;2.332;2022-08-30T02:55:06;4.00;4.00;2.00
68841;PMS5003;55849;48.482;2.332;2022-08-30T02:58:09;5.25;4.50;3.00
68841;PMS5003;55849;48.482;2.332;2022-08-30T03:01:12;7.00;6.00;4.00
68841;PMS5003;55849;48.482;2.332;2022-08-30T03:04:15;4.25;4.25;3.00
68841;PMS5003;55849;48.482;2.332;2022-08-30T03:07:17;4.25;3.75;3.25
68841;PMS5003;55849;48.482;2.332;2022-08-30T03:10:20;5.50;5.50;2.50
68841;PMS5003;55849;48.482;2.332;2022-08-30T03:13:22;4.75;3.75;3.00
68841;PMS5003;55849;48.482;2.332;2022-08-30T03:16:24;6.75;5.25;3.00
68841;PMS5003;55849;48.482;2.332;2022-08-30T03:19:25;4.00;4.00;3.00
68841;PMS5003;55849;48.482;2.332;2022-08-30T03:22:27;4.00;4.00;3.50
68841;PMS5003;55849;48.482;2.332;2022-08-30T03:25:31;4.75;3.00;2.00
68841;PMS5003;55849;48.482;2.332;2022-08-30T03:28:33;4.00;4.00;3.00
68841;PMS5003;55849;48.482;2.332;2022-08-30T03:31:34;6.50;4.50;2.25
68841;PMS5003;55849;48.482;2.332;2022-08-30T03:34:36;3.75;3.00;2.00
68841;PMS5003;55849;48.482;2.332;2022-08-30T03:37:38;3.75;3.75;2.25
68841;PMS5003;55849;48.482;2.332;2022-08-30T03:40:42;6.25;3.50;3.00
68841;PMS5003;55849;48.482;2.332;2022-08-30T03:43:44;6.50;5.00;2.75
68841;PMS5003;55849;48.482;2.332;2022-08-30T03:46:46;5.75;4.00;3.00
68841;PMS5003;55849;48.482;2.332;2022-08-30T03:49:48;8.25;5.00;3.75
68841;PMS5003;55849;48.482;2.332;2022-08-30T03:52:50;4.75;3.00;2.00
68841;PMS5003;55849;48.482;2.332;2022-08-30T03:55:53;5.00;5.00;3.00
68841;PMS5003;55849;48.482;2.332;2022-08-30T03:58:55;6.50;4.00;2.75
68841;PMS5003;55849;48.482;2.332;2022-08-30T04:01:57;4.00;4.00;3.00
68841;PMS5003;55849;48.482;2.332;2022-08-30T04:04:59;7.75;5.50;4.00
68841;PMS5003;55849;48.482;2.332;2022-08-30T04:08:00;6.25;6.00;4.00
68841;PMS5003;55849;48.482;2.332;2022-08-30T04:11:04;5.50;4.25;3.00
68841;PMS5003;55849;48.482;2.332;2022-08-30T04:14:06;6.50;5.75;3.00
68841;PMS5003;55849;48.482;2.332;2022-08-30T04:17:07;5.00;5.00;2.00
68841;PMS5003;55849;48.482;2.332;2022-08-30T04:20:09;5.00;5.00;3.00
68841;PMS5003;55849;48.482;2.332;2022-08-30T04:23:11;5.00;5.00;4.00
68841;PMS5003;55849;48.482;2.332;2022-08-30T04:26:14;6.00;6.00;4.25
68841;PMS5003;55849;48.482;2.332;2022-08-30T04:29:16;6.25;4.25;3.50
68841;PMS5003;55849;48.482;2.332;2022-08-30T04:32:18;4.25;3.50;3.00
68841;PMS5003;55849;48.482;2.332;2022-08-30T04:35:19;6.50;6.50;4.00
68841;PMS5003;55849;48.482;2.332;2022-08-30T04:38:21;7.25;5.75;3.00
68841;PMS5003;55849;48.482;2.332;2022-08-30T04:41:24;3.75;3.75;2.75
68841;PMS5003;55849;48.482;2.332;2022-08-30T04:44:26;4.50;4.50;3.00
68841;PMS5003;55849;48.482;2.332;2022-08-30T04:47:27;6.25;6.25;3.75
68841;PMS5003;55849;48.482;2.332;2022-08-30T04:50:29;6.75;5.25;4.00
68841;PMS5003;55849;48.482;2.332;2022-08-30T04:53:31;8.00;5.75;3.25
68841;PMS5003;55849;48.482;2.332;2022-08-30T04:56:34;5.00;4.00;3.00
68841;PMS5003;55849;48.482;2.332;2022-08-30T04:59:36;5.25;5.00;3.75
68841;PMS5003;55849;48.482;2.332;2022-08-30T05:02:38;6.75;5.00;3.00
68841;PMS5003;55849;48.482;2.332;2022-08-30T05:05:45;4.50;4.50;3.00
68841;PMS5003;55849;48.482;2.332;2022-08-30T05:08:47;5.75;3.00;3.00
68841;PMS5003;55849;48.482;2.332;2022-08-30T05:11:51;5.00;5.00;4.00
68841;PMS5003;55849;48.482;2.332;2022-08-30T05:14:52;5.75;5.00;3.00
68841;PMS5003;55849;48.482;2.332;2022-08-30T05:17:57;5.25;4.25;3.00
68841;PMS5003;55849;48.482;2.332;2022-08-30T05:21:03;5.25;3.00;2.75
68841;PMS5003;55849;48.482;2.332;2022-08-30T05:24:05;6.25;6.25;3.00
68841;PMS5003;55849;48.482;2.332;2022-08-30T05:27:08;5.25;5.25;3.00
68841;PMS5003;55849;48.482;2.332;2022-08-30T05:30:11;5.25;5.25;3.00
68841;PMS5003;55849;48.482;2.332;2022-08-30T05:33:13;6.25;5.00;3.00
68841;PMS5003;55849;48.482;2.332;2022-08-30T05:36:16;9.75;6.25;4.50
68841;PMS5003;55849;48.482;2.332;2022-08-30T05:39:19;7.00;5.75;3.50
68841;PMS5003;55849;48.482;2.332;2022-08-30T05:42:22;5.25;5.25;3.25
68841;PMS5003;55849;48.482;2.332;2022-08-30T05:45:24;6.75;6.50;4.25
68841;PMS5003;55849;48.482;2.332;2022-08-30T05:48:25;7.75;6.00;4.00
68841;PMS5003;55849;48.482;2.332;2022-08-30T05:51:28;5.75;5.50;3.00
68841;PMS5003;55849;48.482;2.332;2022-08-30T05:54:31;6.00;6.00;4.00
68841;PMS5003;55849;48.482;2.332;2022-08-30T05:57:35;6.50;4.75;3.00
68841;PMS5003;55849;48.482;2.332;2022-08-30T06:00:38;10.00;10.00;4.75
68841;PMS5003;55849;48.482;2.332;2022-08-30T06:03:39;7.75;6.00;4.00
68841;PMS5003;55849;48.482;2.332;2022-08-30T06:06:41;5.75;5.75;3.75
68841;PMS5003;55849;48.482;2.332;2022-08-30T06:09:44;5.25;5.00;3.00
68841;PMS5003;55849;48.482;2.332;2022-08-30T06:12:47;5.75;5.00;4.00
68841;PMS5003;55849;48.482;2.332;2022-08-30T06:15:48;5.50;5.50;3.25
68841;PMS5003;55849;48.482;2.332;2022-08-30T06:18:52;7.75;5.00;4.00
68841;PMS5003;55849;48.482;2.332;2022-08-30T06:21:54;4.75;4.00;3.00
68841;PMS5003;55849;48.482;2.332;2022-08-30T06:24:56;8.00;4.75;3.25
68841;PMS5003;55849;48.482;2.332;2022-08-30T06:27:59;5.25;4.25;3.25
68841;PMS5003;55849;48.482;2.332;2022-08-30T06:31:04;7.75;4.75;3.00
68841;PMS5003;55849;48.482;2.332;2022-08-30T06:34:06;7.25;5.50;3.25
68841;PMS5003;55849;48.482;2.332;2022-08-30T06:37:07;5.00;5.00;3.25
68841;PMS5003;55849;48.482;2.332;2022-08-30T06:40:09;5.00;5.00;3.00
68841;PMS5003;55849;48.482;2.332;2022-08-30T06:43:14;5.00;4.50;3.00
68841;PMS5003;55849;48.482;2.332;2022-08-30T06:46:17;4.00;3.75;3.00
68841;PMS5003;55849;48.482;2.332;2022-08-30T06:49:21;5.50;5.00;3.00
68841;PMS5003;55849;48.482;2.332;2022-08-30T06:52:22;7.50;6.00;3.50
68841;PMS5003;55849;48.482;2.332;2022-08-30T06:55:24;6.00;5.00;3.25
68841;PMS5003;55849;48.482;2.332;2022-08-30T06:58:28;5.50;5.00;4.00
68841;PMS5003;55849;48.482;2.332;2022-08-30T07:01:31;4.00;4.00;2.25
68841;PMS5003;55849;48.482;2.332;2022-08-30T07:04:33;3.00;3.00;3.00
68841;PMS5003;55849;48.482;2.332;2022-08-30T07:07:34;5.50;5.00;4.00
68841;PMS5003;55849;48.482;2.332;2022-08-30T07:10:36;6.00;5.00;4.00
68841;PMS5003;55849;48.482;2.332;2022-08-30T07:13:39;5.00;5.00;4.00
68841;PMS5003;55849;48.482;2.332;2022-08-30T07:16:42;5.50;5.00;3.50
68841;PMS5003;55849;48.482;2.332;2022-08-30T07:19:43;5.25;5.25;3.50
68841;PMS5003;55849;48.482;2.332;2022-08-30T07:22:44;6.25;6.00;4.25
68841;PMS5003;55849;48.482;2.332;2022-08-30T07:25:46;5.75;5.75;4.50
68841;PMS5003;55849;48.482;2.332;2022-08-30T07:28:49;4.00;4.00;3.00
68841;PMS5003;55849;48.482;2.332;2022-08-30T07:31:51;8.50;6.25;4.00
68841;PMS5003;55849;48.482;2.332;2022-08-30T07:34:52;6.25;4.75;3.00
68841;PMS5003;55849;48.482;2.332;2022-08-30T07:37:54;4.50;4.00;3.00
68841;PMS5003;55849;48.482;2.332;2022-08-30T07:40:56;4.50;4.00;3.25
68841;PMS5003;55849;48.482;2.332;2022-08-30T07:43:59;5.75;4.25;3.00
68841;PMS5003;55849;48.482;2.332;2022-08-30T07:47:02;6.75;5.50;4.00
68841;PMS5003;55849;48.482;2.332;2022-08-30T07:50:04;7.00;6.50;4.00
68841;PMS5003;55849;48.482;2.332;2022-08-30T07:53:06;4.25;4.00;3.75
68841;PMS5003;55849;48.482;2.332;2022-08-30T07:56:08;7.00;6.00;4.00
68841;PMS5003;55849;48.482;2.332;2022-08-30T07:59:11;6.50;6.00;5.00
68841;PMS5003;55849;48.482;2.332;2022-08-30T08:02:12;6.00;5.00;3.25
68841;PMS5003;55849;48.482;2.332;2022-08-30T08:05:14;6.75;5.50;4.00
68841;PMS5003;55849;48.482;2.332;2022-08-30T08:08:16;5.75;4.00;4.00
68841;PMS5003;55849;48.482;2.332;2022-08-30T08:11:18;9.50;7.75;4.25
68841;PMS5003;55849;48.482;2.332;2022-08-30T08:14:23;6.00;6.00;4.00
68841;PMS5003;55849;48.482;2.332;2022-08-30T08:17:24;7.75;6.00;4.00
68841;PMS5003;55849;48.482;2.332;2022-08-30T08:20:26;9.25;7.25;4.50
68841;PMS5003;55849;48.482;2.332;2022-08-30T08:23:28;8.75;7.50;4.25
68841;PMS5003;55849;48.482;2.332;2022-08-30T08:26:30;7.50;7.50;4.25
68841;PMS5003;55849;48.482;2.332;2022-08-30T08:29:35;6.75;6.00;3.50
68841;PMS5003;55849;48.482;2.332;2022-08-30T08:32:37;6.75;6.75;4.75
68841;PMS5003;55849;48.482;2.332;2022-08-30T08:35:40;5.50;5.50;3.50
68841;PMS5003;55849;48.482;2.332;2022-08-30T08:38:41;10.50;7.25;4.50
68841;PMS5003;55849;48.482;2.332;2022-08-30T08:41:48;7.75;6.00;4.50
68841;PMS5003;55849;48.482;2.332;2022-08-30T08:44:58;10.00;9.00;5.50
68841;PMS5003;55849;48.482;2.332;2022-08-30T08:48:03;5.75;5.50;4.00
68841;PMS5003;55849;48.482;2.332;2022-08-30T08:51:10;8.50;5.50;4.75
68841;PMS5003;55849;48.482;2.332;2022-08-30T08:54:33;9.75;7.00;5.00
68841;PMS5003;55849;48.482;2.332;2022-08-30T08:57:40;5.50;5.50;4.25
68841;PMS5003;55849;48.482;2.332;2022-08-30T09:00:43;13.50;7.00;4.75
68841;PMS5003;55849;48.482;2.332;2022-08-30T09:03:45;8.00;7.25;5.00
68841;PMS5003;55849;48.482;2.332;2022-08-30T09:06:49;8.00;5.50;3.50
68841;PMS5003;55849;48.482;2.332;2022-08-30T09:09:55;9.00;6.75;5.00
68841;PMS5003;55849;48.482;2.332;2022-08-30T09:12:59;6.25;6.00;4.00
68841;PMS5003;55849;48.482;2.332;2022-08-30T09:16:03;6.00;6.00;4.00
68841;PMS5003;55849;48.482;2.332;2022-08-30T09:19:05;10.00;8.00;5.00
68841;PMS5003;55849;48.482;2.332;2022-08-30T09:22:14;7.25;6.00;4.00
68841;PMS5003;55849;48.482;2.332;2022-08-30T09:25:23;4.75;4.75;3.25
68841;PMS5003;55849;48.482;2.332;2022-08-30T09:28:27;5.00;5.00;4.25
68841;PMS5003;55849;48.482;2.332;2022-08-30T09:31:32;19.00;16.25;10.25
68841;PMS5003;55849;48.482;2.332;2022-08-30T09:34:47;8.75;6.75;5.25
68841;PMS5003;55849;48.482;2.332;2022-08-30T09:37:53;10.75;9.75;7.00
68841;PMS5003;55849;48.482;2.332;2022-08-30T09:40:57;12.75;9.00;6.00
68841;PMS5003;55849;48.482;2.332;2022-08-30T09:44:03;8.75;8.50;6.25
68841;PMS5003;55849;48.482;2.332;2022-08-30T09:47:17;10.00;8.75;6.50
68841;PMS5003;55849;48.482;2.332;2022-08-30T09:50:20;16.75;10.00;6.00
68841;PMS5003;55849;48.482;2.332;2022-08-30T09:53:22;10.25;9.50;5.00
68841;PMS5003;55849;48.482;2.332;2022-08-30T09:56:30;9.50;8.50;5.00
68841;PMS5003;55849;48.482;2.332;2022-08-30T09:59:42;9.50;7.75;4.25
68841;PMS5003;55849;48.482;2.332;2022-08-30T10:02:55;7.50;7.00;5.00
68841;PMS5003;55849;48.482;2.332;2022-08-30T10:06:05;10.00;8.50;5.50
68841;PMS5003;55849;48.482;2.332;2022-08-30T10:09:15;9.50;7.50;6.00
68841;PMS5003;55849;48.482;2.332;2022-08-30T10:12:28;8.25;8.25;6.00
68841;PMS5003;55849;48.482;2.332;2022-08-30T10:15:38;7.25;7.25;5.50
68841;PMS5003;55849;48.482;2.332;2022-08-30T10:18:48;11.50;6.75;4.75
68841;PMS5003;55849;48.482;2.332;2022-08-30T10:21:56;7.50;6.25;4.00
68841;PMS5003;55849;48.482;2.332;2022-08-30T10:25:04;6.75;6.75;5.00
68841;PMS5003;55849;48.482;2.332;2022-08-30T10:28:12;8.25;6.25;4.25
68841;PMS5003;55849;48.482;2.332;2022-08-30T10:31:23;9.25;8.25;6.00
68841;PMS5003;55849;48.482;2.332;2022-08-30T10:34:30;8.25;5.25;4.00
68841;PMS5003;55849;48.482;2.332;2022-08-30T10:37:36;8.75;6.50;4.50
68841;PMS5003;55849;48.482;2.332;2022-08-30T10:40:41;9.00;6.50;4.00
68841;PMS5003;55849;48.482;2.332;2022-08-30T10:44:05;6.75;6.75;5.00
68841;PMS5003;55849;48.482;2.332;2022-08-30T10:47:13;11.25;10.50;9.00
68841;PMS5003;55849;48.482;2.332;2022-08-30T10:50:26;8.50;7.50;5.50
68841;PMS5003;55849;48.482;2.332;2022-08-30T10:53:31;15.25;14.00;8.00
68841;PMS5003;55849;48.482;2.332;2022-08-30T10:56:39;10.25;8.75;6.00
68841;PMS5003;55849;48.482;2.332;2022-08-30T10:59:45;10.75;8.50;6.25
68841;PMS5003;55849;48.482;2.332;2022-08-30T11:06:33;8.25;8.25;6.00
68841;PMS5003;55849;48.482;2.332;2022-08-30T11:09:43;11.50;9.50;7.25
68841;PMS5003;55849;48.482;2.332;2022-08-30T11:13:09;7.50;7.50;6.00
68841;PMS5003;55849;48.482;2.332;2022-08-30T11:16:15;13.75;8.50;6.25
68841;PMS5003;55849;48.482;2.332;2022-08-30T11:19:20;8.00;8.00;4.00
68841;PMS5003;55849;48.482;2.332;2022-08-30T11:22:27;13.00;9.75;6.00
68841;PMS5003;55849;48.482;2.332;2022-08-30T11:25:48;10.00;10.00;6.25
68841;PMS5003;55849;48.482;2.332;2022-08-30T11:28:58;10.00;7.50;4.25
68841;PMS5003;55849;48.482;2.332;2022-08-30T11:32:21;8.25;8.00;6.00
68841;PMS5003;55849;48.482;2.332;2022-08-30T11:35:39;9.50;7.25;5.00
68841;PMS5003;55849;48.482;2.332;2022-08-30T11:42:11;8.00;6.75;5.00
68841;PMS5003;55849;48.482;2.332;2022-08-30T11:45:44;10.00;8.00;6.25
68841;PMS5003;55849;48.482;2.332;2022-08-30T11:48:51;10.25;9.75;7.25
68841;PMS5003;55849;48.482;2.332;2022-08-30T11:51:58;9.50;9.00;7.00
68841;PMS5003;55849;48.482;2.332;2022-08-30T11:58:42;7.00;7.00;4.00
68841;PMS5003;55849;48.482;2.332;2022-08-30T12:01:49;9.00;6.75;5.25
68841;PMS5003;55849;48.482;2.332;2022-08-30T12:04:51;7.00;7.00;4.25
68841;PMS5003;55849;48.482;2.332;2022-08-30T12:07:56;9.75;9.75;7.00
68841;PMS5003;55849;48.482;2.332;2022-08-30T12:11:01;9.00;9.00;6.00
68841;PMS5003;55849;48.482;2.332;2022-08-30T12:14:05;14.00;9.00;7.00
68841;PMS5003;55849;48.482;2.332;2022-08-30T12:17:12;5.75;5.00;4.00
68841;PMS5003;55849;48.482;2.332;2022-08-30T12:20:39;5.00;5.00;4.00
68841;PMS5003;55849;48.482;2.332;2022-08-30T12:23:46;9.50;8.75;7.50
68841;PMS5003;55849;48.482;2.332;2022-08-30T12:26:53;8.50;8.50;5.75
68841;PMS5003;55849;48.482;2.332;2022-08-30T12:29:58;7.00;7.00;5.75
68841;PMS5003;55849;48.482;2.332;2022-08-30T12:33:01;8.50;8.50;6.25
68841;PMS5003;55849;48.482;2.332;2022-08-30T12:36:03;9.00;7.75;6.25
68841;PMS5003;55849;48.482;2.332;2022-08-30T12:39:06;10.75;8.50;5.50
68841;PMS5003;55849;48.482;2.332;2022-08-30T12:42:12;8.00;7.00;6.00
68841;PMS5003;55849;48.482;2.332;2022-08-30T12:45:19;7.00;7.00;4.25
68841;PMS5003;55849;48.482;2.332;2022-08-30T12:48:22;8.25;7.50;6.00
68841;PMS5003;55849;48.482;2.332;2022-08-30T12:51:25;9.25;7.00;5.50
68841;PMS5003;55849;48.482;2.332;2022-08-30T12:54:35;9.75;8.50;5.00
68841;PMS5003;55849;48.482;2.332;2022-08-30T12:57:42;7.25;6.00;5.00
68841;PMS5003;55849;48.482;2.332;2022-08-30T13:01:10;7.50;5.25;4.25
68841;PMS5003;55849;48.482;2.332;2022-08-30T13:04:17;8.75;8.75;6.25
68841;PMS5003;55849;48.482;2.332;2022-08-30T13:07:28;8.75;7.25;6.00
68841;PMS5003;55849;48.482;2.332;2022-08-30T13:10:31;9.50;7.00;5.00
68841;PMS5003;55849;48.482;2.332;2022-08-30T13:13:36;7.25;6.25;5.25
68841;PMS5003;55849;48.482;2.332;2022-08-30T13:16:41;8.75;7.25;5.50
68841;PMS5003;55849;48.482;2.332;2022-08-30T13:19:44;9.00;7.75;6.00
68841;PMS5003;55849;48.482;2.332;2022-08-30T13:23:02;8.75;6.75;5.00
68841;PMS5003;55849;48.482;2.332;2022-08-30T13:26:06;8.25;6.50;4.75
68841;PMS5003;55849;48.482;2.332;2022-08-30T13:29:13;10.50;8.50;5.00
68841;PMS5003;55849;48.482;2.332;2022-08-30T13:32:16;9.00;8.00;5.75
68841;PMS5003;55849;48.482;2.332;2022-08-30T13:35:18;9.50;8.00;5.00
68841;PMS5003;55849;48.482;2.332;2022-08-30T13:38:20;7.75;7.50;6.00
68841;PMS5003;55849;48.482;2.332;2022-08-30T13:41:22;10.75;7.25;6.00
68841;PMS5003;55849;48.482;2.332;2022-08-30T13:44:26;8.75;7.50;5.75
68841;PMS5003;55849;48.482;2.332;2022-08-30T13:47:28;7.00;7.00;4.75
68841;PMS5003;55849;48.482;2.332;2022-08-30T13:50:30;8.25;8.25;5.25
68841;PMS5003;55849;48.482;2.332;2022-08-30T13:53:32;7.00;7.00;6.00
68841;PMS5003;55849;48.482;2.332;2022-08-30T13:56:33;7.75;7.75;6.50
68841;PMS5003;55849;48.482;2.332;2022-08-30T13:59:36;11.50;10.00;7.50
68841;PMS5003;55849;48.482;2.332;2022-08-30T14:02:38;9.00;9.00;6.00
68841;PMS5003;55849;48.482;2.332;2022-08-30T14:05:41;9.25;8.00;6.00
68841;PMS5003;55849;48.482;2.332;2022-08-30T14:08:44;9.00;7.50;6.00
68841;PMS5003;55849;48.482;2.332;2022-08-30T14:11:46;7.50;7.50;6.00
68841;PMS5003;55849;48.482;2.332;2022-08-30T14:14:49;6.50;6.50;5.25
68841;PMS5003;55849;48.482;2.332;2022-08-30T14:17:50;11.00;9.00;6.00
68841;PMS5003;55849;48.482;2.332;2022-08-30T14:20:53;10.25;8.50;6.00
68841;PMS5003;55849;48.482;2.332;2022-08-30T14:23:56;7.50;7.50;5.75
68841;PMS5003;55849;48.482;2.332;2022-08-30T14:26:58;10.50;8.00;6.25
68841;PMS5003;55849;48.482;2.332;2022-08-30T14:30:01;9.50;6.50;5.00
68841;PMS5003;55849;48.482;2.332;2022-08-30T14:33:05;11.25;8.50;6.25
68841;PMS5003;55849;48.482;2.332;2022-08-30T14:36:06;7.25;7.25;5.00
68841;PMS5003;55849;48.482;2.332;2022-08-30T14:39:12;6.50;6.50;6.25
68841;PMS5003;55849;48.482;2.332;2022-08-30T14:42:17;6.75;5.50;4.75
68841;PMS5003;55849;48.482;2.332;2022-08-30T14:45:20;10.00;8.00;6.00
68841;PMS5003;55849;48.482;2.332;2022-08-30T14:48:23;8.00;7.50;5.00
68841;PMS5003;55849;48.482;2.332;2022-08-30T14:51:25;8.00;8.00;4.50
68841;PMS5003;55849;48.482;2.332;2022-08-30T14:54:28;10.25;8.00;4.75
68841;PMS5003;55849;48.482;2.332;2022-08-30T14:57:31;9.00;6.00;5.00
68841;PMS5003;55849;48.482;2.332;2022-08-30T15:00:34;11.00;8.50;6.50
68841;PMS5003;55849;48.482;2.332;2022-08-30T15:03:35;8.75;7.50;6.00
68841;PMS5003;55849;48.482;2.332;2022-08-30T15:06:39;8.25;6.75;5.00
68841;PMS5003;55849;48.482;2.332;2022-08-30T15:09:43;5.00;5.00;4.50
68841;PMS5003;55849;48.482;2.332;2022-08-30T15:12:45;6.00;6.00;5.00
68841;PMS5003;55849;48.482;2.332;2022-08-30T15:15:48;10.25;8.00;5.50
68841;PMS5003;55849;48.482;2.332;2022-08-30T15:18:50;8.00;7.25;5.00
68841;PMS5003;55849;48.482;2.332;2022-08-30T15:21:52;9.75;7.50;5.75
68841;PMS5003;55849;48.482;2.332;2022-08-30T15:24:54;7.25;6.25;4.25
68841;PMS5003;55849;48.482;2.332;2022-08-30T15:27:56;9.00;6.25;4.75
68841;PMS5003;55849;48.482;2.332;2022-08-30T15:30:59;10.00;8.00;5.00
68841;PMS5003;55849;48.482;2.332;2022-08-30T15:34:00;7.75;6.00;4.50
68841;PMS5003;55849;48.482;2.332;2022-08-30T15:37:02;8.00;5.50;4.00
68841;PMS5003;55849;48.482;2.332;2022-08-30T15:40:05;7.50;6.25;5.50
68841;PMS5003;55849;48.482;2.332;2022-08-30T15:43:07;9.00;7.75;5.25
68841;PMS5003;55849;48.482;2.332;2022-08-30T15:46:19;8.25;7.00;5.00
68841;PMS5003;55849;48.482;2.332;2022-08-30T15:49:22;6.75;5.50;4.50
68841;PMS5003;55849;48.482;2.332;2022-08-30T15:52:25;9.25;5.50;5.25
68841;PMS5003;55849;48.482;2.332;2022-08-30T15:55:27;7.25;7.25;5.50
68841;PMS5003;55849;48.482;2.332;2022-08-30T15:58:29;9.75;8.75;7.25
68841;PMS5003;55849;48.482;2.332;2022-08-30T16:01:32;6.50;6.50;6.00
68841;PMS5003;55849;48.482;2.332;2022-08-30T16:04:33;6.00;6.00;5.00
68841;PMS5003;55849;48.482;2.332;2022-08-30T16:07:36;9.75;9.75;6.75
68841;PMS5003;55849;48.482;2.332;2022-08-30T16:10:37;10.00;7.25;6.00
68841;PMS5003;55849;48.482;2.332;2022-08-30T16:13:39;7.25;7.25;6.00
68841;PMS5003;55849;48.482;2.332;2022-08-30T16:16:42;8.75;8.25;6.50
68841;PMS5003;55849;48.482;2.332;2022-08-30T16:19:45;7.75;7.50;6.25
68841;PMS5003;55849;48.482;2.332;2022-08-30T16:22:47;9.25;7.00;5.75
68841;PMS5003;55849;48.482;2.332;2022-08-30T16:25:48;9.75;9.75;6.00
68841;PMS5003;55849;48.482;2.332;2022-08-30T16:28:50;7.75;6.50;5.50
68841;PMS5003;55849;48.482;2.332;2022-08-30T16:31:53;7.50;7.50;5.00
68841;PMS5003;55849;48.482;2.332;2022-08-30T16:34:55;7.25;6.00;4.50
68841;PMS5003;55849;48.482;2.332;2022-08-30T16:37:56;11.25;8.75;5.25
68841;PMS5003;55849;48.482;2.332;2022-08-30T16:41:01;9.75;7.00;5.00
68841;PMS5003;55849;48.482;2.332;2022-08-30T16:44:04;6.50;5.25;4.50
68841;PMS5003;55849;48.482;2.332;2022-08-30T16:47:07;9.75;7.75;4.75
68841;PMS5003;55849;48.482;2.332;2022-08-30T16:50:09;6.75;5.50;4.50
68841;PMS5003;55849;48.482;2.332;2022-08-30T16:53:11;7.25;5.50;5.00
68841;PMS5003;55849;48.482;2.332;2022-08-30T16:56:14;8.00;6.00;5.00
68841;PMS5003;55849;48.482;2.332;2022-08-30T16:59:17;6.50;5.25;4.00
68841;PMS5003;55849;48.482;2.332;2022-08-30T17:02:20;7.25;7.00;6.00
68841;PMS5003;55849;48.482;2.332;2022-08-30T17:05:21;5.75;5.75;4.00
68841;PMS5003;55849;48.482;2.332;2022-08-30T17:08:23;6.00;5.25;5.00
68841;PMS5003;55849;48.482;2.332;2022-08-30T17:11:26;6.00;6.00;4.75
68841;PMS5003;55849;48.482;2.332;2022-08-30T17:14:27;10.25;7.75;5.25
68841;PMS5003;55849;48.482;2.332;2022-08-30T17:17:30;10.25;6.25;5.75
68841;PMS5003;55849;48.482;2.332;2022-08-30T17:20:32;7.25;7.25;6.25
68841;PMS5003;55849;48.482;2.332;2022-08-30T17:23:34;7.25;7.25;7.00
68841;PMS5003;55849;48.482;2.332;2022-08-30T17:26:36;6.75;6.75;5.00
68841;PMS5003;55849;48.482;2.332;2022-08-30T17:29:38;7.00;7.00;5.00
68841;PMS5003;55849;48.482;2.332;2022-08-30T17:32:41;8.75;5.75;4.25
68841;PMS5003;55849;48.482;2.332;2022-08-30T17:35:43;7.25;7.00;5.25
68841;PMS5003;55849;48.482;2.332;2022-08-30T17:38:45;5.25;5.25;4.00
68841;PMS5003;55849;48.482;2.332;2022-08-30T17:41:47;8.50;6.50;5.00
68841;PMS5003;55849;48.482;2.332;2022-08-30T17:44:48;5.75;5.25;5.00
68841;PMS5003;55849;48.482;2.332;2022-08-30T17:47:51;8.50;7.00;4.75
68841;PMS5003;55849;48.482;2.332;2022-08-30T17:50:53;7.25;6.00;4.25
68841;PMS5003;55849;48.482;2.332;2022-08-30T17:53:55;8.25;8.25;6.00
68841;PMS5003;55849;48.482;2.332;2022-08-30T17:56:57;7.75;7.25;5.00
68841;PMS5003;55849;48.482;2.332;2022-08-30T18:00:00;8.25;5.25;4.75
68841;PMS5003;55849;48.482;2.332;2022-08-30T18:03:03;8.75;8.25;5.75
68841;PMS5003;55849;48.482;2.332;2022-08-30T18:06:05;7.00;7.00;5.00